createdAt,value
2023-02-26T00:01:43.315Z,10.20
2023-02-26T00:04:10.892Z,9.70
2023-02-26T00:06:53.227Z,8.57
2023-02-26T00:09:22.769Z,8.30
2023-02-26T00:11:50.672Z,9.70
2023-02-26T00:14:18.022Z,9.27
2023-02-26T00:16:51.592Z,7.47
2023-02-26T00:19:20.460Z,8.48
2023-02-26T00:21:48.153Z,7.28
2023-02-26T00:24:17.404Z,7.32
2023-02-26T00:26:44.929Z,7.28
2023-02-26T00:29:12.498Z,7.40
2023-02-26T00:31:40.963Z,7.00
2023-02-26T00:34:13.290Z,8.85
2023-02-26T00:36:46.834Z,12.73
2023-02-26T00:39:42.860Z,17.55
2023-02-26T00:42:10.173Z,8.60
2023-02-26T00:44:37.684Z,8.75
2023-02-26T00:47:30.776Z,9.95
2023-02-26T00:50:14.299Z,7.45
2023-02-26T00:53:00.395Z,7.50
2023-02-26T00:55:29.442Z,9.10
2023-02-26T00:57:58.824Z,9.75
2023-02-26T01:00:27.591Z,8.10
2023-02-26T01:02:56.022Z,8.98
2023-02-26T01:05:26.259Z,7.30
2023-02-26T01:07:59.853Z,6.47
2023-02-26T01:10:27.968Z,6.68
2023-02-26T01:12:57.613Z,6.93
2023-02-26T01:15:25.700Z,6.78
2023-02-26T01:18:02.718Z,6.47
2023-02-26T01:20:38.853Z,6.47
2023-02-26T01:23:16.400Z,7.30
2023-02-26T01:25:50.554Z,15.93
2023-02-26T01:28:18.384Z,8.00
2023-02-26T01:30:46.465Z,7.30
2023-02-26T01:33:22.977Z,7.82
2023-02-26T01:35:54.700Z,7.07
2023-02-26T01:39:08.805Z,7.43
2023-02-26T01:41:51.312Z,6.97
2023-02-26T01:44:48.910Z,7.10
2023-02-26T01:47:41.765Z,7.05
2023-02-26T01:50:14.467Z,8.73
2023-02-26T01:52:51.122Z,7.57
2023-02-26T01:55:27.593Z,7.68
2023-02-26T01:57:59.074Z,7.55
2023-02-26T02:00:33.203Z,8.05
2023-02-26T02:03:02.442Z,10.18
2023-02-26T02:05:42.161Z,8.77
2023-02-26T02:08:13.485Z,9.13
2023-02-26T02:10:46.986Z,7.82
2023-02-26T02:13:16.811Z,7.22
2023-02-26T02:16:06.305Z,7.05
2023-02-26T02:18:52.549Z,7.57
2023-02-26T02:21:42.257Z,7.30
2023-02-26T02:24:14.840Z,7.28
2023-02-26T02:27:00.325Z,7.20
2023-02-26T02:29:28.573Z,7.13
2023-02-26T02:31:59.552Z,7.18
2023-02-26T02:34:32.790Z,7.07
2023-02-26T02:37:28.330Z,6.60
2023-02-26T02:40:08.097Z,6.78
2023-02-26T02:43:12.777Z,6.85
2023-02-26T02:46:05.221Z,6.60
2023-02-26T02:48:32.302Z,6.18
2023-02-26T02:51:04.351Z,6.57
2023-02-26T02:53:44.041Z,5.88
2023-02-26T02:56:15.243Z,5.60
2023-02-26T02:58:56.460Z,6.20
2023-02-26T03:01:28.033Z,6.20
2023-02-26T03:04:07.736Z,6.22
2023-02-26T03:06:35.731Z,6.70
2023-02-26T03:09:05.391Z,5.82
2023-02-26T03:11:39.741Z,6.07
2023-02-26T03:14:11.031Z,6.47
2023-02-26T03:17:12.568Z,9.18
2023-02-26T03:20:13.909Z,6.63
2023-02-26T03:23:00.228Z,6.85
2023-02-26T03:25:35.998Z,7.15
2023-02-26T03:28:13.715Z,6.40
2023-02-26T03:30:51.891Z,6.75
2023-02-26T03:33:53.478Z,6.53
2023-02-26T03:36:28.505Z,6.40
2023-02-26T03:39:18.686Z,5.90
2023-02-26T03:42:02.656Z,6.00
2023-02-26T03:44:38.531Z,5.40
2023-02-26T03:47:13.087Z,5.40
2023-02-26T03:49:50.952Z,5.30
2023-02-26T03:52:33.261Z,5.72
2023-02-26T03:55:10.904Z,5.75
2023-02-26T03:57:38.582Z,5.00
2023-02-26T04:00:10.953Z,5.68
2023-02-26T04:02:45.899Z,5.17
2023-02-26T04:05:19.924Z,5.40
2023-02-26T04:07:48.710Z,5.65
2023-02-26T04:10:19.875Z,5.57
2023-02-26T04:12:46.910Z,6.00
2023-02-26T04:15:14.910Z,6.38
2023-02-26T04:17:43.386Z,6.60
2023-02-26T04:20:12.305Z,5.75
2023-02-26T04:22:39.687Z,6.03
2023-02-26T04:25:07.514Z,6.10
2023-02-26T04:27:34.806Z,6.57
2023-02-26T04:30:02.209Z,7.25
2023-02-26T04:32:31.712Z,7.20
2023-02-26T04:35:00.196Z,7.40
2023-02-26T04:37:27.664Z,7.63
2023-02-26T04:39:55.142Z,33.00
2023-02-26T04:42:22.808Z,38.90
2023-02-26T04:45:02.617Z,12.95
2023-02-26T04:47:29.927Z,24.55
2023-02-26T04:49:57.186Z,11.57
2023-02-26T04:52:24.337Z,8.93
2023-02-26T04:54:51.610Z,10.75
2023-02-26T04:57:19.098Z,10.65
2023-02-26T04:59:47.865Z,9.45
2023-02-26T05:02:15.706Z,9.57
2023-02-26T05:04:43.990Z,8.88
2023-02-26T05:07:11.934Z,11.82
2023-02-26T05:09:39.496Z,10.30
2023-02-26T05:12:06.880Z,14.15
2023-02-26T05:14:34.366Z,13.77
2023-02-26T05:17:01.756Z,11.73
2023-02-26T05:19:29.344Z,9.38
2023-02-26T05:21:57.741Z,9.25
2023-02-26T05:24:25.387Z,10.07
2023-02-26T05:26:52.712Z,8.43
2023-02-26T05:29:20.220Z,8.68
2023-02-26T05:31:47.759Z,9.77
2023-02-26T05:34:15.638Z,7.85
2023-02-26T05:36:43.090Z,7.90
2023-02-26T05:39:10.822Z,9.60
2023-02-26T05:41:38.044Z,8.70
2023-02-26T05:44:05.629Z,8.40
2023-02-26T05:46:32.991Z,9.00
2023-02-26T05:49:00.447Z,7.90
2023-02-26T05:51:28.933Z,8.80
2023-02-26T05:53:56.356Z,9.43
2023-02-26T05:56:24.265Z,8.95
2023-02-26T05:58:58.080Z,7.45
2023-02-26T06:01:26.352Z,7.50
2023-02-26T06:03:53.600Z,7.72
2023-02-26T06:06:23.065Z,6.63
2023-02-26T06:08:51.773Z,7.10
2023-02-26T06:11:19.353Z,6.25
2023-02-26T06:13:46.773Z,6.80
2023-02-26T06:16:14.281Z,6.40
2023-02-26T06:18:47.920Z,6.78
2023-02-26T06:21:15.389Z,5.80
2023-02-26T06:23:43.984Z,6.07
2023-02-26T06:26:13.200Z,6.45
2023-02-26T06:28:42.486Z,6.05
2023-02-26T06:31:11.096Z,5.90
2023-02-26T06:33:40.320Z,6.30
2023-02-26T06:36:08.772Z,6.53
2023-02-26T06:38:36.297Z,6.93
2023-02-26T06:41:09.375Z,6.85
2023-02-26T06:43:36.929Z,6.22
2023-02-26T06:46:04.737Z,6.18
2023-02-26T06:48:33.433Z,6.05
2023-02-26T06:51:00.910Z,6.03
2023-02-26T06:53:28.363Z,6.25
2023-02-26T06:55:55.855Z,6.03
2023-02-26T06:58:24.691Z,6.05
2023-02-26T07:00:51.876Z,5.53
2023-02-26T07:03:19.798Z,5.22
2023-02-26T07:05:47.566Z,5.15
2023-02-26T07:08:15.266Z,4.93
2023-02-26T07:10:44.092Z,5.10
2023-02-26T07:13:13.583Z,5.03
2023-02-26T07:15:41.382Z,5.82
2023-02-26T07:18:15.760Z,5.40
2023-02-26T07:20:43.868Z,6.07
2023-02-26T07:23:12.725Z,8.13
2023-02-26T07:25:42.430Z,8.35
2023-02-26T07:28:10.796Z,7.75
2023-02-26T07:30:38.356Z,8.85
2023-02-26T07:33:05.773Z,8.25
2023-02-26T07:35:33.200Z,8.30
2023-02-26T07:38:00.628Z,9.20
2023-02-26T07:40:29.169Z,7.68
2023-02-26T07:42:56.652Z,7.43
2023-02-26T07:45:25.141Z,12.82
2023-02-26T07:47:54.521Z,6.10
2023-02-26T07:50:25.184Z,12.25
2023-02-26T07:52:54.705Z,11.20
2023-02-26T07:55:22.769Z,7.03
2023-02-26T07:57:50.435Z,5.78
2023-02-26T08:00:18.590Z,6.22
2023-02-26T08:02:46.255Z,9.93
2023-02-26T08:05:13.433Z,14.52
2023-02-26T08:07:44.123Z,22.45
2023-02-26T08:10:13.714Z,12.75
2023-02-26T08:12:41.062Z,10.52
2023-02-26T08:15:14.679Z,6.32
2023-02-26T08:17:43.185Z,12.55
2023-02-26T08:20:12.208Z,5.35
2023-02-26T08:22:39.833Z,7.30
2023-02-26T08:25:09.445Z,7.15
2023-02-26T08:27:36.895Z,5.95
2023-02-26T08:30:05.809Z,7.95
2023-02-26T08:32:33.694Z,5.22
2023-02-26T08:35:01.180Z,5.78
2023-02-26T08:37:29.701Z,6.70
2023-02-26T08:39:57.396Z,6.03
2023-02-26T08:42:24.716Z,6.97
2023-02-26T08:44:52.336Z,9.15
2023-02-26T08:47:28.547Z,5.50
2023-02-26T08:49:56.718Z,5.45
2023-02-26T08:52:24.226Z,6.80
2023-02-26T08:54:51.610Z,7.80
2023-02-26T08:57:19.030Z,7.03
2023-02-26T08:59:46.535Z,5.53
2023-02-26T09:02:15.353Z,5.50
2023-02-26T09:04:42.971Z,5.47
2023-02-26T09:07:10.007Z,5.22
2023-02-26T09:09:37.325Z,5.00
2023-02-26T09:12:04.957Z,5.57
2023-02-26T09:14:32.240Z,5.95
2023-02-26T09:16:59.411Z,5.28
2023-02-26T09:19:26.612Z,6.45
2023-02-26T09:21:54.062Z,4.90
2023-02-26T09:24:21.070Z,4.75
2023-02-26T09:26:48.507Z,4.63
2023-02-26T09:29:15.871Z,5.03
2023-02-26T09:31:43.179Z,5.03
2023-02-26T09:34:11.566Z,4.97
2023-02-26T09:36:40.810Z,5.15
2023-02-26T09:39:09.308Z,5.65
2023-02-26T09:41:49.088Z,5.47
2023-02-26T09:44:45.378Z,5.32
2023-02-26T09:47:17.095Z,4.68
2023-02-26T09:50:10.816Z,5.45
2023-02-26T09:52:44.946Z,4.70
2023-02-26T09:55:37.036Z,4.93
2023-02-26T09:58:10.061Z,4.88
2023-02-26T10:00:44.920Z,4.63
2023-02-26T10:03:51.136Z,4.10
2023-02-26T10:06:35.908Z,4.10
2023-02-26T10:09:26.293Z,4.68
2023-02-26T10:12:02.507Z,5.00
2023-02-26T10:14:48.237Z,4.65
2023-02-26T10:17:18.256Z,4.80
2023-02-26T10:19:51.932Z,5.97
2023-02-26T10:22:28.015Z,4.35
2023-02-26T10:25:03.746Z,4.93
2023-02-26T10:27:57.242Z,4.22
2023-02-26T10:30:38.285Z,4.30
2023-02-26T10:33:22.763Z,3.83
2023-02-26T10:35:57.293Z,3.63
2023-02-26T10:38:33.701Z,4.05
2023-02-26T10:41:16.254Z,3.30
2023-02-26T10:43:52.505Z,3.78
2023-02-26T10:46:30.634Z,3.60
2023-02-26T10:49:18.656Z,3.35
2023-02-26T10:51:47.377Z,3.03
2023-02-26T10:54:30.169Z,2.78
2023-02-26T10:56:57.688Z,2.87
2023-02-26T10:59:26.054Z,3.03
2023-02-26T11:01:54.665Z,3.00
2023-02-26T11:04:24.374Z,3.22
2023-02-26T11:07:00.694Z,4.35
2023-02-26T11:09:46.377Z,3.33
2023-02-26T11:12:19.339Z,3.38
2023-02-26T11:14:49.281Z,3.75
2023-02-26T11:17:31.659Z,3.78
2023-02-26T11:20:25.471Z,3.80
2023-02-26T11:22:58.411Z,4.82
2023-02-26T11:25:31.116Z,4.20
2023-02-26T11:28:05.749Z,6.10
2023-02-26T11:30:38.052Z,9.05
2023-02-26T11:33:17.114Z,7.43
2023-02-26T11:35:45.878Z,5.20
2023-02-26T11:38:25.971Z,5.72
2023-02-26T11:40:57.287Z,7.03
2023-02-26T11:43:29.130Z,5.68
2023-02-26T11:46:00.694Z,4.95
2023-02-26T11:48:51.843Z,3.92
2023-02-26T11:51:26.843Z,3.70
2023-02-26T11:53:57.374Z,3.75
2023-02-26T11:56:34.483Z,3.00
2023-02-26T11:59:28.071Z,3.25
2023-02-26T12:01:56.032Z,3.70
2023-02-26T12:04:27.487Z,4.10
2023-02-26T12:06:57.114Z,3.50
2023-02-26T12:09:27.130Z,3.75
2023-02-26T12:12:20.806Z,3.88
2023-02-26T12:15:08.952Z,29.33
2023-02-26T12:17:47.942Z,10.00
2023-02-26T12:20:27.737Z,3.70
2023-02-26T12:23:17.972Z,3.22
2023-02-26T12:26:09.780Z,3.95
2023-02-26T12:29:02.632Z,3.00
2023-02-26T12:31:51.318Z,3.65
2023-02-26T12:34:45.088Z,3.17
2023-02-26T12:37:22.386Z,3.63
2023-02-26T12:40:32.770Z,4.70
2023-02-26T12:43:11.140Z,5.20
2023-02-26T12:45:59.430Z,4.82
2023-02-26T12:48:36.398Z,6.38
2023-02-26T12:51:16.373Z,4.60
2023-02-26T12:54:18.720Z,4.40
2023-02-26T12:56:57.944Z,4.15
2023-02-26T12:59:36.167Z,3.63
2023-02-26T13:02:14.394Z,4.10
2023-02-26T13:05:17.121Z,4.55
2023-02-26T13:08:03.363Z,5.20
2023-02-26T13:11:30.989Z,4.07
2023-02-26T13:14:10.670Z,4.03
2023-02-26T13:16:59.883Z,4.88
2023-02-26T13:19:38.239Z,5.40
2023-02-26T13:22:41.132Z,6.20
2023-02-26T13:25:33.700Z,6.90
2023-02-26T13:28:06.185Z,6.72
2023-02-26T13:30:45.019Z,6.10
2023-02-26T13:33:21.810Z,6.97
2023-02-26T13:35:53.546Z,7.40
2023-02-26T13:38:27.515Z,6.90
2023-02-26T13:41:30.573Z,6.35
2023-02-26T13:44:23.942Z,6.50
2023-02-26T13:47:11.650Z,5.22
2023-02-26T13:49:59.660Z,5.78
2023-02-26T13:52:34.155Z,6.13
2023-02-26T13:55:04.933Z,5.78
2023-02-26T13:57:52.457Z,7.00
2023-02-26T14:00:48.528Z,6.00
2023-02-26T14:03:18.898Z,4.63
2023-02-26T14:05:49.707Z,4.88
2023-02-26T14:08:44.591Z,5.00
2023-02-26T14:11:18.618Z,5.05
2023-02-26T14:14:17.192Z,4.40
2023-02-26T14:16:50.112Z,4.88
2023-02-26T14:19:27.468Z,5.43
2023-02-26T14:22:09.948Z,4.72
2023-02-26T14:24:46.570Z,5.13
2023-02-26T14:27:15.462Z,5.43
2023-02-26T14:29:58.852Z,5.55
2023-02-26T14:32:36.544Z,5.82
2023-02-26T14:35:14.477Z,5.43
2023-02-26T14:37:44.309Z,6.07
2023-02-26T14:40:22.502Z,6.20
2023-02-26T14:43:07.757Z,5.45
2023-02-26T14:45:43.624Z,6.03
2023-02-26T14:48:17.791Z,6.28
2023-02-26T14:50:51.225Z,8.10
2023-02-26T14:53:40.904Z,5.97
2023-02-26T14:56:20.564Z,6.00
2023-02-26T14:59:14.986Z,5.40
2023-02-26T15:02:14.426Z,6.15
2023-02-26T15:05:12.021Z,5.90
2023-02-26T15:07:55.341Z,6.10
2023-02-26T15:10:32.567Z,6.68
2023-02-26T15:13:09.825Z,6.68
2023-02-26T15:15:58.918Z,6.50
2023-02-26T15:19:00.317Z,6.53
2023-02-26T15:22:00.138Z,6.25
2023-02-26T15:24:32.476Z,6.70
2023-02-26T15:27:06.786Z,6.70
2023-02-26T15:29:38.670Z,7.85
2023-02-26T15:32:16.998Z,8.48
2023-02-26T15:34:54.993Z,8.20
2023-02-26T15:37:30.907Z,8.60
2023-02-26T15:40:01.137Z,7.95
2023-02-26T15:42:34.424Z,8.75
2023-02-26T15:45:03.723Z,7.70
2023-02-26T15:47:32.667Z,7.93
2023-02-26T15:50:02.961Z,8.82
2023-02-26T15:52:31.903Z,8.55
2023-02-26T15:55:05.692Z,9.38
2023-02-26T15:57:33.612Z,13.70
2023-02-26T16:00:17.657Z,14.73
2023-02-26T16:02:46.436Z,12.45
2023-02-26T16:05:18.043Z,13.98
2023-02-26T16:07:47.769Z,12.90
2023-02-26T16:10:35.982Z,12.80
2023-02-26T16:13:09.004Z,14.00
2023-02-26T16:15:40.831Z,20.85
2023-02-26T16:18:16.133Z,23.13
2023-02-26T16:20:48.870Z,18.27
2023-02-26T16:23:22.697Z,16.20
2023-02-26T16:26:03.224Z,19.77
2023-02-26T16:28:46.301Z,25.65
2023-02-26T16:31:21.355Z,25.10
2023-02-26T16:34:03.234Z,20.45
2023-02-26T16:36:46.643Z,15.95
2023-02-26T16:39:28.530Z,13.95
2023-02-26T16:42:10.558Z,11.18
2023-02-26T16:44:47.649Z,12.00
2023-02-26T16:47:19.076Z,13.48
2023-02-26T16:49:48.578Z,14.30
2023-02-26T16:52:23.490Z,16.15
2023-02-26T16:55:00.093Z,16.90
2023-02-26T16:57:41.209Z,18.13
2023-02-26T17:00:31.443Z,20.88
2023-02-26T17:03:23.447Z,21.60
2023-02-26T17:06:03.512Z,26.15
2023-02-26T17:08:52.751Z,24.70
2023-02-26T17:11:49.499Z,20.55
2023-02-26T17:14:27.803Z,23.58
2023-02-26T17:16:55.648Z,17.20
2023-02-26T17:19:23.877Z,18.60
2023-02-26T17:21:56.735Z,17.73
2023-02-26T17:24:35.189Z,23.27
2023-02-26T17:27:06.177Z,18.75
2023-02-26T17:29:44.424Z,18.02
2023-02-26T17:32:27.326Z,24.60
2023-02-26T17:34:57.504Z,23.10
2023-02-26T17:37:31.281Z,20.77
2023-02-26T17:40:02.144Z,21.88
2023-02-26T17:42:31.858Z,25.67
2023-02-26T17:45:02.237Z,24.25
2023-02-26T17:47:31.539Z,26.13
2023-02-26T17:50:02.626Z,20.83
2023-02-26T17:52:32.254Z,22.33
2023-02-26T17:55:01.824Z,33.35
2023-02-26T17:57:31.755Z,40.72
2023-02-26T18:00:00.230Z,34.15
2023-02-26T18:02:29.720Z,41.78
2023-02-26T18:04:59.102Z,42.28
2023-02-26T18:07:28.619Z,31.52
2023-02-26T18:09:56.896Z,34.53
2023-02-26T18:12:26.034Z,32.17
2023-02-26T18:14:53.862Z,24.67
2023-02-26T18:17:32.278Z,20.35
2023-02-26T18:20:01.419Z,20.85
2023-02-26T18:22:31.678Z,20.33
2023-02-26T18:25:00.008Z,17.70
2023-02-26T18:27:30.616Z,17.02
2023-02-26T18:30:00.208Z,15.90
2023-02-26T18:32:31.238Z,16.10
2023-02-26T18:35:00.749Z,15.68
2023-02-26T18:37:29.693Z,14.75
2023-02-26T18:39:58.148Z,14.27
2023-02-26T18:42:31.314Z,16.17
2023-02-26T18:45:00.318Z,15.27
2023-02-26T18:47:30.120Z,13.57
2023-02-26T18:49:59.123Z,13.68
2023-02-26T18:52:28.581Z,12.23
2023-02-26T18:54:57.216Z,11.68
2023-02-26T18:57:31.625Z,11.13
2023-02-26T19:00:00.328Z,11.88
2023-02-26T19:02:29.519Z,17.75
2023-02-26T19:04:57.961Z,19.02
2023-02-26T19:07:28.618Z,45.03
2023-02-26T19:09:57.478Z,61.20
2023-02-26T19:12:27.357Z,46.13
2023-02-26T19:14:55.498Z,15.35
2023-02-26T19:17:25.514Z,18.77
2023-02-26T19:19:54.297Z,20.00
2023-02-26T19:22:22.655Z,19.63
2023-02-26T19:24:52.213Z,30.08
2023-02-26T19:27:21.620Z,18.60
2023-02-26T19:29:50.271Z,19.45
2023-02-26T19:32:19.248Z,15.93
2023-02-26T19:34:47.639Z,17.38
2023-02-26T19:37:15.859Z,16.10
2023-02-26T19:39:44.585Z,16.67
2023-02-26T19:42:15.365Z,16.13
2023-02-26T19:44:45.442Z,16.45
2023-02-26T19:47:14.039Z,16.90
2023-02-26T19:49:43.016Z,17.70
2023-02-26T19:52:11.488Z,24.33
2023-02-26T19:54:40.100Z,27.42
2023-02-26T19:57:08.117Z,38.10
2023-02-26T19:59:38.604Z,58.60
2023-02-26T20:02:08.200Z,50.97
2023-02-26T20:04:36.117Z,30.63
2023-02-26T20:07:04.647Z,20.92
2023-02-26T20:09:36.413Z,15.18
2023-02-26T20:12:11.859Z,15.68
2023-02-26T20:14:40.805Z,18.73
2023-02-26T20:17:13.989Z,17.10
2023-02-26T20:19:43.334Z,25.33
2023-02-26T20:22:12.544Z,22.52
2023-02-26T20:24:42.145Z,14.25
2023-02-26T20:27:10.397Z,12.57
2023-02-26T20:29:39.865Z,10.65
2023-02-26T20:32:10.521Z,10.65
2023-02-26T20:34:42.783Z,11.02
2023-02-26T20:37:11.011Z,10.98
2023-02-26T20:39:39.498Z,10.75
2023-02-26T20:42:08.982Z,10.10
2023-02-26T20:44:38.512Z,10.18
2023-02-26T20:47:08.023Z,11.02
2023-02-26T20:49:38.103Z,14.63
2023-02-26T20:52:08.549Z,21.42
2023-02-26T20:54:37.284Z,22.27
2023-02-26T20:57:06.047Z,39.88
2023-02-26T20:59:34.133Z,47.83
2023-02-26T21:02:02.661Z,29.77
2023-02-26T21:04:32.184Z,18.58
2023-02-26T21:07:13.571Z,20.52
2023-02-26T21:09:41.535Z,15.15
2023-02-26T21:12:10.398Z,10.27
2023-02-26T21:14:42.040Z,10.00
2023-02-26T21:17:10.914Z,9.10
2023-02-26T21:19:39.592Z,7.72
2023-02-26T21:22:07.724Z,8.25
2023-02-26T21:24:35.804Z,8.18
2023-02-26T21:27:04.951Z,8.73
2023-02-26T21:29:33.030Z,7.57
2023-02-26T21:32:03.886Z,7.70
2023-02-26T21:34:41.216Z,7.43
2023-02-26T21:37:11.751Z,8.30
2023-02-26T21:39:39.892Z,8.07
2023-02-26T21:42:11.761Z,8.43
2023-02-26T21:44:40.613Z,7.72
2023-02-26T21:47:08.623Z,8.23
2023-02-26T21:49:36.346Z,8.35
2023-02-26T21:52:06.055Z,8.13
2023-02-26T21:54:34.478Z,7.90
2023-02-26T21:57:02.152Z,8.30
2023-02-26T21:59:29.798Z,8.20
2023-02-26T22:01:56.990Z,8.23
2023-02-26T22:04:24.698Z,8.20
2023-02-26T22:06:54.224Z,8.25
2023-02-26T22:09:22.085Z,8.23
2023-02-26T22:11:49.733Z,7.65
2023-02-26T22:14:18.015Z,8.38
2023-02-26T22:16:45.602Z,8.93
2023-02-26T22:19:12.953Z,9.13
2023-02-26T22:21:46.451Z,9.00
2023-02-26T22:24:14.004Z,8.68
2023-02-26T22:26:44.814Z,8.52
2023-02-26T22:29:12.424Z,9.43
2023-02-26T22:31:40.065Z,8.70
2023-02-26T22:34:08.341Z,11.70
2023-02-26T22:36:37.913Z,12.77
2023-02-26T22:39:06.358Z,15.35
2023-02-26T22:41:35.129Z,20.60
2023-02-26T22:44:02.873Z,16.30
2023-02-26T22:46:32.629Z,10.15
2023-02-26T22:49:00.552Z,13.40
2023-02-26T22:51:30.081Z,20.75
2023-02-26T22:53:57.405Z,25.73
2023-02-26T22:56:25.199Z,28.02
2023-02-26T22:58:52.776Z,25.70
2023-02-26T23:01:20.857Z,21.48
2023-02-26T23:03:47.935Z,21.05
2023-02-26T23:06:16.228Z,18.00
2023-02-26T23:08:43.507Z,13.95
2023-02-26T23:11:10.984Z,13.57
2023-02-26T23:13:40.381Z,11.98
2023-02-26T23:16:10.673Z,11.93
2023-02-26T23:18:39.614Z,12.18
2023-02-26T23:21:08.397Z,11.02
2023-02-26T23:23:35.976Z,11.18
2023-02-26T23:26:03.720Z,10.98
2023-02-26T23:28:31.325Z,11.60
2023-02-26T23:30:58.950Z,10.35
2023-02-26T23:33:26.383Z,10.32
2023-02-26T23:35:54.195Z,10.63
2023-02-26T23:38:23.748Z,10.20
2023-02-26T23:40:51.255Z,10.50
2023-02-26T23:43:18.565Z,10.30
2023-02-26T23:45:46.084Z,9.82
2023-02-26T23:48:13.428Z,9.43
2023-02-26T23:50:40.984Z,9.95
2023-02-26T23:53:08.681Z,9.88
2023-02-26T23:55:36.810Z,9.65
2023-02-26T23:58:04.390Z,9.73
